Good Hope, IL (61438)

11:17 PM CDT on July 25, 2014 (GMT -0500)
WIU Harry Mussatto Golf Course (KILMACOM9) Elev 712 ft | 40.48 °N, 90.69 °W | Change Station

Current weather conditions updated 3 minutes ago

Mostly Cloudy
Mostly Cloudy
69.3 °F
Feels Like 69.3 °F
N
5.0
Wind Variable Wind from SE
Gusts 11.0 mph

Tomorrow is forecast to be Much Warmer than today. Thunderstorms developing in the afternoon.

Today
High -- | Low -- °F
--% Chance of Precip.
Yesterday
High -- | Low -- °F
Precip. -- in
5:53 AM 8:24 PM
Waning Crescent, 1% visible
Pressure 29.89 in
Visibility 10.0 miles
Clouds Mostly Cloudy 6000 ft
Mostly Cloudy 7000 ft
Dew Point 63 °F
Humidity 81%
Rainfall 0.00 in
Snow Depth Not available.
UV 0 out of 12
Pollen 5.60 out of 12
Air Quality Not available.
Flu Activity Not available.
METAR KMQB 260355Z AUTO 13009KT 10SM BKN060 BKN070 20/17 A2989 RMK AO2 T02000171

More Conditions Fewer Conditions

Pressure 29.89 in
Visibility 10.0 miles
Clouds Mostly Cloudy 6000 ft
Mostly Cloudy 7000 ft
Dew Point 63 °F
Humidity 81%
Rainfall 0.00 in
Snow Depth Not available.
UV 0 out of 12
Pollen 5.60 out of 12
Air Quality Not available.
Flu Activity Not available.
METAR KMQB 260355Z AUTO 13009KT 10SM BKN060 BKN070 20/17 A2989 RMK AO2 T02000171

More Conditions Fewer Conditions

10-Day Weather Forecast

Almanac

Astronomy

Jul. 25, 2014 Rise Set
Actual Time 5:53 AM CDT 8:24 PM CDT
Civil Twilight 5:21 AM CDT 8:55 PM CDT
Nautical Twilight 4:42 AM CDT 9:34 PM CDT
Astronomical Twilight 3:59 AM CDT 10:18 PM CDT
Moon 4:53 AM CDT (7/25) 7:21 PM CDT (7/25)
Length of Visible Light 15h 33m
Length of Day
14h 31m
Tomorrow will be 1m 48s shorter.
Waning Crescent, 1% of the Moon is Illuminated
Jul 26
Waning Crescent
Jul 26
New
Aug 3
First Quarter
Aug 10
Full
Aug 17
Last Quarter

Today's Extremes

State Highs State Lows

Community

WunderPhotos

Upload Photos

1,737,504 photos uploaded!

Nearby

Snow Depth

Station Depth Elevation
No new snow has been reported.

Earthquake Activity

City Distance Mag. Time & Date
No recent earthquake activity has been reported nearby.
Minimum magnitude displayed is 2.5.

Coastal Water Temperatures

Place Temperature
No Stations Reporting

Nearby Weather Stations

Station Location Temp. Dew Point Humidity Wind Precip. Elev Updated Type
WIU Harry Mussatto Golf Course, Macomb, IL 69.3 °F 63 °F 81% SE  at  5.0 mph 0.00 in / hr 712 ft 11:14 PM CDT Normal
ARS W9PFD, Adair, IL 68.5 °F 64 °F 86% ESE  at  9.0 mph 0.00 in / hr 650 ft 11:15 PM CDT Normal
Burgus Computers, Stronghurst, IL 69.1 °F 62 °F 79% ESE  at  3.0 mph 0.00 in / hr 680 ft 11:17 PM CDT Rapid Fire
Cameron, Cameron, IL 67.6 °F 64 °F 89% SSE  at  5.0 mph 0.00 in / hr 768 ft 11:11 PM CDT Normal
CPS, Biggsville, IL 69.0 °F 64 °F 84% East  at  7.0 mph 0.00 in / hr 659 ft 11:17 PM CDT Normal
East of Bentley, Carthage, IL 69.8 °F 64 °F 81% SE  at  6.0 mph 0.00 in / hr 650 ft 11:15 PM CDT Normal

Show More Stations Show Fewer Stations